sensor_id;sensor_type;location;lat;lon;timestamp;temperature;humidity
20594;DHT22;10455;48.732;10.266;2022-07-06T00:00:53;12.20;99.90
20594;DHT22;10455;48.732;10.266;2022-07-06T00:05:56;12.10;99.90
20594;DHT22;10455;48.732;10.266;2022-07-06T00:11:00;12.10;99.90
20594;DHT22;10455;48.732;10.266;2022-07-06T00:16:02;12.10;99.90
20594;DHT22;10455;48.732;10.266;2022-07-06T00:21:05;12.00;99.90
20594;DHT22;10455;48.732;10.266;2022-07-06T00:26:09;12.10;99.90
20594;DHT22;10455;48.732;10.266;2022-07-06T00:31:11;12.20;99.90
20594;DHT22;10455;48.732;10.266;2022-07-06T00:36:13;12.10;99.90
20594;DHT22;10455;48.732;10.266;2022-07-06T00:41:17;12.10;99.90
20594;DHT22;10455;48.732;10.266;2022-07-06T00:46:22;12.10;99.90
20594;DHT22;10455;48.732;10.266;2022-07-06T00:51:28;12.10;99.90
20594;DHT22;10455;48.732;10.266;2022-07-06T00:56:33;12.00;99.90
20594;DHT22;10455;48.732;10.266;2022-07-06T01:01:36;11.80;99.90
20594;DHT22;10455;48.732;10.266;2022-07-06T01:06:38;11.70;99.90
20594;DHT22;10455;48.732;10.266;2022-07-06T01:11:42;11.70;99.90
20594;DHT22;10455;48.732;10.266;2022-07-06T01:16:45;11.60;99.90
20594;DHT22;10455;48.732;10.266;2022-07-06T01:21:48;11.50;99.90
20594;DHT22;10455;48.732;10.266;2022-07-06T01:26:51;11.40;99.90
20594;DHT22;10455;48.732;10.266;2022-07-06T01:31:53;11.40;99.90
20594;DHT22;10455;48.732;10.266;2022-07-06T01:36:58;11.30;99.90
20594;DHT22;10455;48.732;10.266;2022-07-06T01:42:00;11.30;99.90
20594;DHT22;10455;48.732;10.266;2022-07-06T01:47:02;11.30;99.90
20594;DHT22;10455;48.732;10.266;2022-07-06T01:52:06;11.30;99.90
20594;DHT22;10455;48.732;10.266;2022-07-06T01:57:08;11.40;99.90
20594;DHT22;10455;48.732;10.266;2022-07-06T02:02:10;11.40;99.90
20594;DHT22;10455;48.732;10.266;2022-07-06T02:07:14;11.50;99.90
20594;DHT22;10455;48.732;10.266;2022-07-06T02:12:16;11.60;99.90
20594;DHT22;10455;48.732;10.266;2022-07-06T02:17:18;11.70;99.90
20594;DHT22;10455;48.732;10.266;2022-07-06T02:22:22;11.70;99.90
20594;DHT22;10455;48.732;10.266;2022-07-06T02:27:24;11.60;99.90
20594;DHT22;10455;48.732;10.266;2022-07-06T02:32:27;11.70;99.90
20594;DHT22;10455;48.732;10.266;2022-07-06T02:37:30;11.60;99.90
20594;DHT22;10455;48.732;10.266;2022-07-06T02:42:33;11.60;99.90
20594;DHT22;10455;48.732;10.266;2022-07-06T02:47:35;11.60;99.90
20594;DHT22;10455;48.732;10.266;2022-07-06T02:52:39;11.60;99.90
20594;DHT22;10455;48.732;10.266;2022-07-06T02:57:41;11.60;99.90
20594;DHT22;10455;48.732;10.266;2022-07-06T03:02:44;11.60;99.90
20594;DHT22;10455;48.732;10.266;2022-07-06T03:07:47;11.50;99.90
20594;DHT22;10455;48.732;10.266;2022-07-06T03:12:49;11.40;99.90
20594;DHT22;10455;48.732;10.266;2022-07-06T03:17:52;11.50;99.90
20594;DHT22;10455;48.732;10.266;2022-07-06T03:22:55;11.40;99.90
20594;DHT22;10455;48.732;10.266;2022-07-06T03:27:57;11.60;99.90
20594;DHT22;10455;48.732;10.266;2022-07-06T03:32:59;11.60;99.90
20594;DHT22;10455;48.732;10.266;2022-07-06T03:38:03;11.70;99.90
20594;DHT22;10455;48.732;10.266;2022-07-06T03:43:05;11.80;99.90
20594;DHT22;10455;48.732;10.266;2022-07-06T03:48:07;12.00;99.90
20594;DHT22;10455;48.732;10.266;2022-07-06T03:53:11;12.00;99.90
20594;DHT22;10455;48.732;10.266;2022-07-06T03:58:13;12.10;99.90
20594;DHT22;10455;48.732;10.266;2022-07-06T04:03:15;12.10;99.90
20594;DHT22;10455;48.732;10.266;2022-07-06T04:08:19;12.40;99.90
20594;DHT22;10455;48.732;10.266;2022-07-06T04:13:21;12.60;99.90
20594;DHT22;10455;48.732;10.266;2022-07-06T04:18:24;12.90;99.90
20594;DHT22;10455;48.732;10.266;2022-07-06T04:23:28;13.50;99.90
20594;DHT22;10455;48.732;10.266;2022-07-06T04:28:30;16.20;99.90
20594;DHT22;10455;48.732;10.266;2022-07-06T04:33:32;18.30;99.90
20594;DHT22;10455;48.732;10.266;2022-07-06T04:38:37;21.20;99.90
20594;DHT22;10455;48.732;10.266;2022-07-06T04:43:39;24.50;99.90
20594;DHT22;10455;48.732;10.266;2022-07-06T04:48:42;27.20;92.40
20594;DHT22;10455;48.732;10.266;2022-07-06T04:53:45;29.10;87.20
20594;DHT22;10455;48.732;10.266;2022-07-06T04:58:47;29.80;78.30
20594;DHT22;10455;48.732;10.266;2022-07-06T05:03:50;31.20;74.90
20594;DHT22;10455;48.732;10.266;2022-07-06T05:08:53;31.90;69.30
20594;DHT22;10455;48.732;10.266;2022-07-06T05:13:55;32.10;70.20
20594;DHT22;10455;48.732;10.266;2022-07-06T05:18:58;32.20;69.30
20594;DHT22;10455;48.732;10.266;2022-07-06T05:24:02;31.80;67.00
20594;DHT22;10455;48.732;10.266;2022-07-06T05:29:04;31.80;67.30
20594;DHT22;10455;48.732;10.266;2022-07-06T05:34:06;31.70;66.20
20594;DHT22;10455;48.732;10.266;2022-07-06T05:39:10;31.50;68.40
20594;DHT22;10455;48.732;10.266;2022-07-06T05:44:12;32.30;67.40
20594;DHT22;10455;48.732;10.266;2022-07-06T05:49:14;32.30;67.00
20594;DHT22;10455;48.732;10.266;2022-07-06T05:54:35;31.60;64.90
20594;DHT22;10455;48.732;10.266;2022-07-06T05:59:38;29.50;69.60
20594;DHT22;10455;48.732;10.266;2022-07-06T06:04:40;29.10;70.80
20594;DHT22;10455;48.732;10.266;2022-07-06T06:09:44;29.00;71.00
20594;DHT22;10455;48.732;10.266;2022-07-06T06:14:46;29.60;68.70
20594;DHT22;10455;48.732;10.266;2022-07-06T06:19:48;30.60;67.40
20594;DHT22;10455;48.732;10.266;2022-07-06T06:24:52;30.20;67.40
20594;DHT22;10455;48.732;10.266;2022-07-06T06:29:54;31.30;65.50
20594;DHT22;10455;48.732;10.266;2022-07-06T06:34:56;32.50;64.60
20594;DHT22;10455;48.732;10.266;2022-07-06T06:40:00;31.20;65.20
20594;DHT22;10455;48.732;10.266;2022-07-06T06:45:03;31.70;64.40
20594;DHT22;10455;48.732;10.266;2022-07-06T06:50:06;32.30;62.10
20594;DHT22;10455;48.732;10.266;2022-07-06T06:55:10;31.90;64.30
20594;DHT22;10455;48.732;10.266;2022-07-06T07:00:13;32.40;62.00
20594;DHT22;10455;48.732;10.266;2022-07-06T07:05:15;34.40;60.00
20594;DHT22;10455;48.732;10.266;2022-07-06T07:10:18;34.80;58.90
20594;DHT22;10455;48.732;10.266;2022-07-06T07:15:21;34.00;58.10
20594;DHT22;10455;48.732;10.266;2022-07-06T07:20:24;34.00;61.00
20594;DHT22;10455;48.732;10.266;2022-07-06T07:25:28;35.30;57.20
20594;DHT22;10455;48.732;10.266;2022-07-06T07:30:30;32.60;60.30
20594;DHT22;10455;48.732;10.266;2022-07-06T07:35:33;31.80;62.40
20594;DHT22;10455;48.732;10.266;2022-07-06T07:40:36;32.00;63.90
20594;DHT22;10455;48.732;10.266;2022-07-06T07:45:39;32.10;62.10
20594;DHT22;10455;48.732;10.266;2022-07-06T07:50:41;33.80;60.10
20594;DHT22;10455;48.732;10.266;2022-07-06T07:55:45;35.70;57.50
20594;DHT22;10455;48.732;10.266;2022-07-06T08:00:47;36.50;55.80
20594;DHT22;10455;48.732;10.266;2022-07-06T08:05:49;37.40;55.40
20594;DHT22;10455;48.732;10.266;2022-07-06T08:10:53;36.40;55.50
20594;DHT22;10455;48.732;10.266;2022-07-06T08:15:55;37.30;54.60
20594;DHT22;10455;48.732;10.266;2022-07-06T08:20:57;37.30;52.70
20594;DHT22;10455;48.732;10.266;2022-07-06T08:26:01;36.00;57.40
20594;DHT22;10455;48.732;10.266;2022-07-06T08:31:03;36.40;55.80
20594;DHT22;10455;48.732;10.266;2022-07-06T08:36:06;37.20;53.30
20594;DHT22;10455;48.732;10.266;2022-07-06T08:41:10;35.10;58.00
20594;DHT22;10455;48.732;10.266;2022-07-06T08:46:13;35.90;53.90
20594;DHT22;10455;48.732;10.266;2022-07-06T08:51:16;36.50;53.70
20594;DHT22;10455;48.732;10.266;2022-07-06T08:56:20;35.40;54.30
20594;DHT22;10455;48.732;10.266;2022-07-06T09:01:22;33.70;56.20
20594;DHT22;10455;48.732;10.266;2022-07-06T09:06:25;35.40;56.60
20594;DHT22;10455;48.732;10.266;2022-07-06T09:11:29;33.80;55.50
20594;DHT22;10455;48.732;10.266;2022-07-06T09:16:32;35.80;53.70
20594;DHT22;10455;48.732;10.266;2022-07-06T09:21:34;33.20;57.80
20594;DHT22;10455;48.732;10.266;2022-07-06T09:26:40;33.20;56.70
20594;DHT22;10455;48.732;10.266;2022-07-06T09:31:45;33.50;58.80
20594;DHT22;10455;48.732;10.266;2022-07-06T09:36:57;33.20;55.90
20594;DHT22;10455;48.732;10.266;2022-07-06T09:42:03;34.10;58.00
20594;DHT22;10455;48.732;10.266;2022-07-06T09:47:06;34.80;58.30
20594;DHT22;10455;48.732;10.266;2022-07-06T09:52:10;35.60;53.40
20594;DHT22;10455;48.732;10.266;2022-07-06T09:57:14;32.90;58.40
20594;DHT22;10455;48.732;10.266;2022-07-06T10:02:16;32.70;62.00
20594;DHT22;10455;48.732;10.266;2022-07-06T10:07:18;32.10;59.50
20594;DHT22;10455;48.732;10.266;2022-07-06T10:12:24;32.20;57.90
20594;DHT22;10455;48.732;10.266;2022-07-06T10:17:27;30.20;61.90
20594;DHT22;10455;48.732;10.266;2022-07-06T10:22:29;31.30;60.90
20594;DHT22;10455;48.732;10.266;2022-07-06T10:27:35;30.60;62.60
20594;DHT22;10455;48.732;10.266;2022-07-06T10:32:39;29.70;66.60
20594;DHT22;10455;48.732;10.266;2022-07-06T10:37:41;30.10;65.90
20594;DHT22;10455;48.732;10.266;2022-07-06T10:42:46;31.20;60.00
20594;DHT22;10455;48.732;10.266;2022-07-06T10:48:17;31.20;60.20
20594;DHT22;10455;48.732;10.266;2022-07-06T10:53:22;32.20;60.10
20594;DHT22;10455;48.732;10.266;2022-07-06T10:58:47;33.40;57.60
20594;DHT22;10455;48.732;10.266;2022-07-06T11:04:05;35.00;55.70
20594;DHT22;10455;48.732;10.266;2022-07-06T11:09:08;33.10;56.40
20594;DHT22;10455;48.732;10.266;2022-07-06T11:14:14;30.10;60.50
20594;DHT22;10455;48.732;10.266;2022-07-06T11:19:18;30.70;63.40
20594;DHT22;10455;48.732;10.266;2022-07-06T11:24:21;30.10;62.70
20594;DHT22;10455;48.732;10.266;2022-07-06T11:29:27;29.90;65.30
20594;DHT22;10455;48.732;10.266;2022-07-06T11:34:31;30.30;67.60
20594;DHT22;10455;48.732;10.266;2022-07-06T11:39:35;31.40;62.40
20594;DHT22;10455;48.732;10.266;2022-07-06T11:44:40;30.20;68.40
20594;DHT22;10455;48.732;10.266;2022-07-06T11:49:42;30.20;63.90
20594;DHT22;10455;48.732;10.266;2022-07-06T11:54:46;28.70;65.20
20594;DHT22;10455;48.732;10.266;2022-07-06T11:59:50;29.40;63.80
20594;DHT22;10455;48.732;10.266;2022-07-06T12:04:53;32.10;64.00
20594;DHT22;10455;48.732;10.266;2022-07-06T12:09:55;30.60;67.90
20594;DHT22;10455;48.732;10.266;2022-07-06T12:14:59;32.30;63.30
20594;DHT22;10455;48.732;10.266;2022-07-06T12:20:01;32.30;59.80
20594;DHT22;10455;48.732;10.266;2022-07-06T12:25:04;32.30;59.90
20594;DHT22;10455;48.732;10.266;2022-07-06T12:30:12;33.20;56.70
20594;DHT22;10455;48.732;10.266;2022-07-06T12:35:15;33.40;59.10
20594;DHT22;10455;48.732;10.266;2022-07-06T12:40:18;34.00;55.40
20594;DHT22;10455;48.732;10.266;2022-07-06T12:45:27;33.90;55.20
20594;DHT22;10455;48.732;10.266;2022-07-06T12:50:34;32.60;56.70
20594;DHT22;10455;48.732;10.266;2022-07-06T12:55:36;33.00;55.30
20594;DHT22;10455;48.732;10.266;2022-07-06T13:00:45;34.20;55.60
20594;DHT22;10455;48.732;10.266;2022-07-06T13:05:49;34.20;58.40
20594;DHT22;10455;48.732;10.266;2022-07-06T13:10:52;34.50;56.90
20594;DHT22;10455;48.732;10.266;2022-07-06T13:15:55;32.70;58.10
20594;DHT22;10455;48.732;10.266;2022-07-06T13:20:58;32.10;59.40
20594;DHT22;10455;48.732;10.266;2022-07-06T13:26:00;32.70;58.80
20594;DHT22;10455;48.732;10.266;2022-07-06T13:31:04;32.30;59.90
20594;DHT22;10455;48.732;10.266;2022-07-06T13:36:06;33.70;56.80
20594;DHT22;10455;48.732;10.266;2022-07-06T13:41:09;33.20;57.60
20594;DHT22;10455;48.732;10.266;2022-07-06T13:46:12;32.90;58.20
20594;DHT22;10455;48.732;10.266;2022-07-06T13:51:15;32.80;58.30
20594;DHT22;10455;48.732;10.266;2022-07-06T13:56:18;33.80;56.30
20594;DHT22;10455;48.732;10.266;2022-07-06T14:01:21;33.50;54.90
20594;DHT22;10455;48.732;10.266;2022-07-06T14:06:24;31.90;57.20
20594;DHT22;10455;48.732;10.266;2022-07-06T14:11:26;29.60;60.00
20594;DHT22;10455;48.732;10.266;2022-07-06T14:16:29;29.50;61.50
20594;DHT22;10455;48.732;10.266;2022-07-06T14:21:32;30.70;58.50
20594;DHT22;10455;48.732;10.266;2022-07-06T14:26:34;32.10;57.00
20594;DHT22;10455;48.732;10.266;2022-07-06T14:31:37;30.90;57.00
20594;DHT22;10455;48.732;10.266;2022-07-06T14:36:40;30.50;57.70
20594;DHT22;10455;48.732;10.266;2022-07-06T14:41:42;31.50;57.50
20594;DHT22;10455;48.732;10.266;2022-07-06T14:46:45;31.90;58.40
20594;DHT22;10455;48.732;10.266;2022-07-06T14:51:48;30.90;63.80
20594;DHT22;10455;48.732;10.266;2022-07-06T14:56:50;28.50;67.00
20594;DHT22;10455;48.732;10.266;2022-07-06T15:01:54;28.90;65.80
20594;DHT22;10455;48.732;10.266;2022-07-06T15:06:56;30.40;65.40
20594;DHT22;10455;48.732;10.266;2022-07-06T15:11:58;30.30;63.20
20594;DHT22;10455;48.732;10.266;2022-07-06T15:17:03;31.50;61.20
20594;DHT22;10455;48.732;10.266;2022-07-06T15:22:05;30.20;65.00
20594;DHT22;10455;48.732;10.266;2022-07-06T15:27:07;28.30;67.30
20594;DHT22;10455;48.732;10.266;2022-07-06T15:32:11;27.70;69.50
20594;DHT22;10455;48.732;10.266;2022-07-06T15:37:13;27.10;73.70
20594;DHT22;10455;48.732;10.266;2022-07-06T15:42:15;27.80;71.70
20594;DHT22;10455;48.732;10.266;2022-07-06T15:47:19;29.40;69.70
20594;DHT22;10455;48.732;10.266;2022-07-06T15:52:23;29.60;67.80
20594;DHT22;10455;48.732;10.266;2022-07-06T15:57:25;29.10;69.20
20594;DHT22;10455;48.732;10.266;2022-07-06T16:02:29;28.70;68.50
20594;DHT22;10455;48.732;10.266;2022-07-06T16:07:31;28.00;70.40
20594;DHT22;10455;48.732;10.266;2022-07-06T16:12:33;28.20;69.80
20594;DHT22;10455;48.732;10.266;2022-07-06T16:17:37;27.40;72.50
20594;DHT22;10455;48.732;10.266;2022-07-06T16:22:39;27.40;72.00
20594;DHT22;10455;48.732;10.266;2022-07-06T16:27:42;27.20;73.30
20594;DHT22;10455;48.732;10.266;2022-07-06T16:32:45;27.80;72.80
20594;DHT22;10455;48.732;10.266;2022-07-06T16:37:48;27.30;74.60
20594;DHT22;10455;48.732;10.266;2022-07-06T16:42:50;25.60;76.80
20594;DHT22;10455;48.732;10.266;2022-07-06T16:47:54;25.40;77.20
20594;DHT22;10455;48.732;10.266;2022-07-06T16:52:56;24.90;79.60
20594;DHT22;10455;48.732;10.266;2022-07-06T16:57:59;23.40;80.30
20594;DHT22;10455;48.732;10.266;2022-07-06T17:03:03;22.20;83.70
20594;DHT22;10455;48.732;10.266;2022-07-06T17:08:06;21.60;84.80
20594;DHT22;10455;48.732;10.266;2022-07-06T17:13:09;21.50;84.60
20594;DHT22;10455;48.732;10.266;2022-07-06T17:18:12;21.30;85.50
20594;DHT22;10455;48.732;10.266;2022-07-06T17:23:15;21.50;85.30
20594;DHT22;10455;48.732;10.266;2022-07-06T17:28:17;21.80;84.30
20594;DHT22;10455;48.732;10.266;2022-07-06T17:33:21;21.70;81.50
20594;DHT22;10455;48.732;10.266;2022-07-06T17:38:23;21.30;82.00
20594;DHT22;10455;48.732;10.266;2022-07-06T17:43:25;20.90;84.40
20594;DHT22;10455;48.732;10.266;2022-07-06T17:48:28;20.50;85.00
20594;DHT22;10455;48.732;10.266;2022-07-06T17:53:31;20.10;84.20
20594;DHT22;10455;48.732;10.266;2022-07-06T17:58:33;19.70;84.60
20594;DHT22;10455;48.732;10.266;2022-07-06T18:03:37;19.60;84.30
20594;DHT22;10455;48.732;10.266;2022-07-06T18:08:39;19.50;85.40
20594;DHT22;10455;48.732;10.266;2022-07-06T18:13:41;19.30;84.20
20594;DHT22;10455;48.732;10.266;2022-07-06T18:18:45;19.10;84.50
20594;DHT22;10455;48.732;10.266;2022-07-06T18:23:47;19.00;85.80
20594;DHT22;10455;48.732;10.266;2022-07-06T18:28:50;18.70;85.80
20594;DHT22;10455;48.732;10.266;2022-07-06T18:33:53;18.50;86.70
20594;DHT22;10455;48.732;10.266;2022-07-06T18:38:57;18.30;87.80
20594;DHT22;10455;48.732;10.266;2022-07-06T18:43:59;18.10;87.80
20594;DHT22;10455;48.732;10.266;2022-07-06T18:49:03;17.90;88.50
20594;DHT22;10455;48.732;10.266;2022-07-06T18:54:05;17.80;87.80
20594;DHT22;10455;48.732;10.266;2022-07-06T18:59:07;17.70;87.90
20594;DHT22;10455;48.732;10.266;2022-07-06T19:04:11;17.60;88.20
20594;DHT22;10455;48.732;10.266;2022-07-06T19:09:13;17.40;88.60
20594;DHT22;10455;48.732;10.266;2022-07-06T19:14:16;17.40;88.60
20594;DHT22;10455;48.732;10.266;2022-07-06T19:19:19;17.30;89.30
20594;DHT22;10455;48.732;10.266;2022-07-06T19:24:22;17.10;89.20
20594;DHT22;10455;48.732;10.266;2022-07-06T19:29:24;16.90;88.40
20594;DHT22;10455;48.732;10.266;2022-07-06T19:34:28;16.80;88.30
20594;DHT22;10455;48.732;10.266;2022-07-06T19:39:30;16.70;88.70
20594;DHT22;10455;48.732;10.266;2022-07-06T19:44:33;16.70;89.20
20594;DHT22;10455;48.732;10.266;2022-07-06T19:49:37;16.50;90.10
20594;DHT22;10455;48.732;10.266;2022-07-06T19:54:39;16.30;90.20
20594;DHT22;10455;48.732;10.266;2022-07-06T19:59:41;16.10;90.30
20594;DHT22;10455;48.732;10.266;2022-07-06T20:04:45;16.00;90.20
20594;DHT22;10455;48.732;10.266;2022-07-06T20:09:49;15.90;90.40
20594;DHT22;10455;48.732;10.266;2022-07-06T20:14:51;15.90;90.40
20594;DHT22;10455;48.732;10.266;2022-07-06T20:19:55;15.90;91.40
20594;DHT22;10455;48.732;10.266;2022-07-06T20:24:57;15.60;91.50
20594;DHT22;10455;48.732;10.266;2022-07-06T20:29:59;15.40;92.40
20594;DHT22;10455;48.732;10.266;2022-07-06T20:35:04;15.10;92.40
20594;DHT22;10455;48.732;10.266;2022-07-06T20:40:07;15.00;94.20
20594;DHT22;10455;48.732;10.266;2022-07-06T20:45:10;15.00;94.30
20594;DHT22;10455;48.732;10.266;2022-07-06T20:50:13;14.60;94.70
20594;DHT22;10455;48.732;10.266;2022-07-06T20:55:16;14.20;95.10
20594;DHT22;10455;48.732;10.266;2022-07-06T21:00:18;14.00;95.80
20594;DHT22;10455;48.732;10.266;2022-07-06T21:05:22;13.80;96.20
20594;DHT22;10455;48.732;10.266;2022-07-06T21:10:24;13.70;96.40
20594;DHT22;10455;48.732;10.266;2022-07-06T21:15:26;13.50;97.10
20594;DHT22;10455;48.732;10.266;2022-07-06T21:20:30;13.40;97.90
20594;DHT22;10455;48.732;10.266;2022-07-06T21:25:32;13.30;98.50
20594;DHT22;10455;48.732;10.266;2022-07-06T21:30:34;13.10;99.00
20594;DHT22;10455;48.732;10.266;2022-07-06T21:35:38;12.80;99.90
20594;DHT22;10455;48.732;10.266;2022-07-06T21:40:40;12.60;99.90
20594;DHT22;10455;48.732;10.266;2022-07-06T21:45:43;12.40;99.90
20594;DHT22;10455;48.732;10.266;2022-07-06T21:50:46;12.20;99.90
20594;DHT22;10455;48.732;10.266;2022-07-06T21:55:48;12.10;99.90
20594;DHT22;10455;48.732;10.266;2022-07-06T22:00:51;12.00;99.90
20594;DHT22;10455;48.732;10.266;2022-07-06T22:05:54;12.10;99.90
20594;DHT22;10455;48.732;10.266;2022-07-06T22:10:56;12.10;99.90
20594;DHT22;10455;48.732;10.266;2022-07-06T22:15:59;11.90;99.90
20594;DHT22;10455;48.732;10.266;2022-07-06T22:21:03;11.70;99.90
20594;DHT22;10455;48.732;10.266;2022-07-06T22:26:06;11.50;99.90
20594;DHT22;10455;48.732;10.266;2022-07-06T22:31:10;11.30;99.90
20594;DHT22;10455;48.732;10.266;2022-07-06T22:36:14;11.20;99.90
20594;DHT22;10455;48.732;10.266;2022-07-06T22:41:22;11.20;99.90
20594;DHT22;10455;48.732;10.266;2022-07-06T22:46:25;11.10;99.90
20594;DHT22;10455;48.732;10.266;2022-07-06T22:51:28;11.10;99.90
20594;DHT22;10455;48.732;10.266;2022-07-06T22:56:31;11.10;99.90
20594;DHT22;10455;48.732;10.266;2022-07-06T23:01:33;11.20;99.90
20594;DHT22;10455;48.732;10.266;2022-07-06T23:06:37;11.30;99.90
20594;DHT22;10455;48.732;10.266;2022-07-06T23:11:39;11.30;99.90
20594;DHT22;10455;48.732;10.266;2022-07-06T23:16:41;11.30;99.90
20594;DHT22;10455;48.732;10.266;2022-07-06T23:21:45;11.20;99.90
20594;DHT22;10455;48.732;10.266;2022-07-06T23:26:47;11.30;99.90
20594;DHT22;10455;48.732;10.266;2022-07-06T23:31:49;11.40;99.90
20594;DHT22;10455;48.732;10.266;2022-07-06T23:36:53;11.50;99.90
20594;DHT22;10455;48.732;10.266;2022-07-06T23:41:55;11.50;99.90
20594;DHT22;10455;48.732;10.266;2022-07-06T23:46:58;11.50;99.90
20594;DHT22;10455;48.732;10.266;2022-07-06T23:52:02;11.60;99.90
20594;DHT22;10455;48.732;10.266;2022-07-06T23:57:04;11.70;99.90
